Time;durP1;ratioP1;P1;durP2;ratioP2;P2;SDS_P1;SDS_P2;PMS_P1;PMS_P2;Temp;Humidity;BMP_temperature;BMP_pressure;BME280_temperature;BME280_humidity;BME280_pressure;Samples;Min_cycle;Max_cycle;Signal;HPM_P1;HPM_P2
2024/04/23 07:52:09;;;;;;;2.15;1.95;;;;;;;;;;6331313;22;20080;-94
2024/04/23 08:51:41;;;;;;;2.80;2.33;;;;;;;;;;5708208;21;20025;-82
2024/04/23 08:54:09;;;;;;;2.47;1.90;;;;;;;;;;5313554;27;19997;-81
2024/04/23 08:56:43;;;;;;;4.10;2.45;;;;;;;;;;5314468;27;20395;-85
2024/04/23 08:59:11;;;;;;;2.75;2.05;;;;;;;;;;5312224;27;19997;-82
2024/04/23 09:01:41;;;;;;;1.50;1.40;;;;;;;;;;5313642;27;20075;-84
2024/04/23 09:04:07;;;;;;;1.58;0.95;;;;;;;;;;5315536;27;19998;-87
2024/04/23 09:06:36;;;;;;;1.25;1.10;;;;;;;;;;5316813;27;20013;-82
2024/04/23 09:09:01;;;;;;;1.90;1.30;;;;;;;;;;5313378;27;20002;-90
2024/04/23 09:11:28;;;;;;;1.25;1.20;;;;;;;;;;5314252;27;20047;-81
2024/04/23 09:13:57;;;;;;;2.72;1.50;;;;;;;;;;5314236;27;19998;-81
2024/04/23 09:16:23;;;;;;;1.67;1.58;;;;;;;;;;5311979;27;19998;-83
2024/04/23 09:18:49;;;;;;;1.30;1.30;;;;;;;;;;5318740;27;20006;-81
2024/04/23 09:21:15;;;;;;;4.43;3.40;;;;;;;;;;5316022;27;20008;-85
2024/04/23 09:23:44;;;;;;;2.10;2.00;;;;;;;;;;5316001;27;19998;-83
2024/04/23 09:26:10;;;;;;;1.20;1.10;;;;;;;;;;5317541;27;20043;-82
2024/04/23 09:28:36;;;;;;;1.58;1.48;;;;;;;;;;5316329;27;20440;-82
2024/04/23 09:31:02;;;;;;;1.65;1.50;;;;;;;;;;5445767;21;20006;-86
2024/04/23 09:33:31;;;;;;;2.47;1.38;;;;;;;;;;5285092;27;20022;-82
2024/04/23 09:36:09;;;;;;;1.95;1.83;;;;;;;;;;5249690;27;20005;-82
2024/04/23 09:38:38;;;;;;;2.15;1.65;;;;;;;;;;5282606;27;20002;-82
2024/04/23 09:41:05;;;;;;;3.63;2.30;;;;;;;;;;5286234;27;20447;-82
2024/04/23 09:43:31;;;;;;;2.75;2.00;;;;;;;;;;5282218;27;20076;-85
2024/04/23 09:45:56;;;;;;;2.80;2.10;;;;;;;;;;5281813;27;20422;-82
2024/04/23 09:48:33;;;;;;;2.65;2.10;;;;;;;;;;5281672;27;20002;-82
2024/04/23 09:51:03;;;;;;;2.15;1.95;;;;;;;;;;5282149;27;20002;-82
2024/04/23 09:53:36;;;;;;;4.60;2.05;;;;;;;;;;5252293;27;20058;-82
2024/04/23 09:56:06;;;;;;;1.50;1.40;;;;;;;;;;5281492;27;20026;-82
2024/04/23 09:58:33;;;;;;;1.92;1.73;;;;;;;;;;5251944;27;20077;-82
2024/04/23 10:00:59;;;;;;;1.90;1.55;;;;;;;;;;5281424;27;20006;-82
2024/04/23 10:03:29;;;;;;;1.42;1.10;;;;;;;;;;5281619;27;20013;-82
2024/04/23 10:06:03;;;;;;;1.13;1.00;;;;;;;;;;5251995;27;19998;-82
2024/04/23 10:08:44;;;;;;;1.17;1.10;;;;;;;;;;5281802;27;20409;-79
2024/04/23 10:11:11;;;;;;;1.20;1.10;;;;;;;;;;5281535;27;20010;-90
2024/04/23 10:13:50;;;;;;;0.88;0.88;;;;;;;;;;5281357;27;20010;-85
2024/04/23 10:16:39;;;;;;;0.98;0.98;;;;;;;;;;5281505;27;20014;-89
2024/04/23 10:19:11;;;;;;;0.88;0.88;;;;;;;;;;5280113;27;20045;-85
2024/04/23 10:21:39;;;;;;;0.98;0.98;;;;;;;;;;5251560;27;20003;-83
2024/04/23 10:24:09;;;;;;;2.72;1.90;;;;;;;;;;5281445;27;20437;-90
2024/04/23 10:26:48;;;;;;;;;;;;;;;;;;5282212;27;20006;-83
2024/04/23 10:29:15;;;;;;;1.20;1.20;;;;;;;;;;5280530;27;20006;-82
2024/04/23 10:31:42;;;;;;;1.23;0.93;;;;;;;;;;5281425;27;20010;-83
2024/04/23 10:34:08;;;;;;;0.75;0.75;;;;;;;;;;5282820;27;20009;-86
2024/04/23 10:36:40;;;;;;;4.57;1.15;;;;;;;;;;5281285;27;20077;-85
2024/04/23 10:39:06;;;;;;;0.80;0.80;;;;;;;;;;5279379;27;20002;-82
2024/04/23 10:41:34;;;;;;;1.23;0.90;;;;;;;;;;5281223;27;20013;-81
2024/04/23 10:44:00;;;;;;;0.80;0.80;;;;;;;;;;5281189;27;20014;-83
2024/04/23 10:46:26;;;;;;;1.00;1.00;;;;;;;;;;5281298;27;20010;-84
2024/04/23 10:48:54;;;;;;;1.10;1.00;;;;;;;;;;5280677;27;20348;-81
2024/04/23 10:51:21;;;;;;;0.93;0.93;;;;;;;;;;5280864;27;20010;-82
2024/04/23 10:53:47;;;;;;;1.00;1.00;;;;;;;;;;5280772;27;20043;-85
2024/04/23 10:56:24;;;;;;;1.15;1.08;;;;;;;;;;5281079;27;20364;-84
2024/04/23 10:59:00;;;;;;;0.93;0.93;;;;;;;;;;5281518;27;20008;-83
2024/04/23 11:01:25;;;;;;;1.42;0.93;;;;;;;;;;5280557;27;20445;-87
2024/04/23 11:03:55;;;;;;;1.30;1.20;;;;;;;;;;5280668;27;20006;-82
2024/04/23 11:06:21;;;;;;;0.80;0.80;;;;;;;;;;5281602;27;20010;-82
2024/04/23 11:08:50;;;;;;;1.30;1.20;;;;;;;;;;5281021;27;20049;-84
2024/04/23 11:11:21;;;;;;;1.20;1.10;;;;;;;;;;5279298;27;20009;-85
2024/04/23 11:13:56;;;;;;;1.40;1.30;;;;;;;;;;5279058;27;19998;-84
2024/04/23 11:16:22;;;;;;;1.38;1.27;;;;;;;;;;5280454;27;20031;-87
2024/04/23 11:18:49;;;;;;;1.58;1.20;;;;;;;;;;5279720;27;20006;-84
2024/04/23 11:21:39;;;;;;;1.10;1.00;;;;;;;;;;5280255;27;20026;-85
2024/04/23 11:24:10;;;;;;;2.20;1.50;;;;;;;;;;5246508;27;20329;-84
2024/04/23 11:26:39;;;;;;;1.70;1.15;;;;;;;;;;5280716;27;20080;-86
2024/04/23 11:29:09;;;;;;;2.78;1.23;;;;;;;;;;5280467;27;20026;-84
2024/04/23 11:31:34;;;;;;;;;;;;;;;;;;5280829;27;20006;-84
2024/04/23 11:34:01;;;;;;;1.40;1.30;;;;;;;;;;5280014;27;19942;-86
2024/04/23 11:36:27;;;;;;;1.30;1.20;;;;;;;;;;5281128;27;20013;-84
2024/04/23 11:39:00;;;;;;;2.03;1.50;;;;;;;;;;5250874;27;19998;-84
2024/04/23 11:41:25;;;;;;;2.45;1.40;;;;;;;;;;5279246;27;19998;-85
2024/04/23 11:43:51;;;;;;;1.70;1.20;;;;;;;;;;5250125;27;20013;-84
2024/04/23 11:46:16;;;;;;;1.42;1.33;;;;;;;;;;5280283;27;20002;-86
2024/04/23 15:54:17;;;;;;;2.08;1.85;;;;;;;;;;6653039;21;884004;-89
2024/04/23 15:56:58;;;;;;;2.05;1.95;;;;;;;;;;5509051;25;20354;-89
2024/04/23 15:59:24;;;;;;;2.15;1.88;;;;;;;;;;5509508;26;20067;-87
2024/04/23 16:01:50;;;;;;;2.15;2.05;;;;;;;;;;5483071;26;20432;-86
2024/04/23 16:04:15;;;;;;;2.50;2.30;;;;;;;;;;5509078;25;19998;-87
2024/04/23 16:06:41;;;;;;;4.40;3.88;;;;;;;;;;5507366;26;19997;-87
2024/04/23 16:09:06;;;;;;;2.70;2.50;;;;;;;;;;5507780;26;20331;-86
2024/04/23 16:11:31;;;;;;;2.03;1.92;;;;;;;;;;5507730;25;20000;-89
2024/04/23 16:13:57;;;;;;;2.35;2.15;;;;;;;;;;5507589;26;20004;-89
2024/04/23 16:16:22;;;;;;;2.72;2.50;;;;;;;;;;5507618;25;20004;-89
2024/04/23 16:18:47;;;;;;;2.75;2.50;;;;;;;;;;5507420;26;20436;-89
2024/04/23 16:21:13;;;;;;;2.63;2.42;;;;;;;;;;5507477;26;19994;-89
2024/04/23 16:23:38;;;;;;;3.30;2.47;;;;;;;;;;5507721;25;20436;-89
2024/04/23 16:26:06;;;;;;;2.85;2.55;;;;;;;;;;5507553;26;20433;-89
2024/04/23 16:28:33;;;;;;;2.55;2.35;;;;;;;;;;5509088;26;20066;-89
2024/04/23 16:31:01;;;;;;;2.60;2.40;;;;;;;;;;5507571;25;20062;-90
2024/04/23 16:33:26;;;;;;;2.80;2.38;;;;;;;;;;5509474;25;20005;-89
2024/04/23 16:35:52;;;;;;;2.85;2.45;;;;;;;;;;5509271;25;20017;-91
2024/04/23 16:38:17;;;;;;;2.42;2.20;;;;;;;;;;5507518;26;20074;-90
2024/04/23 16:40:43;;;;;;;3.20;2.47;;;;;;;;;;5508778;25;19994;-88
2024/04/23 16:43:08;;;;;;;2.70;2.50;;;;;;;;;;5507678;26;19989;-89
2024/04/23 16:45:34;;;;;;;2.60;2.40;;;;;;;;;;5507332;26;20010;-90
2024/04/23 16:47:59;;;;;;;4.57;3.08;;;;;;;;;;5509412;25;19998;-89
2024/04/23 16:50:25;;;;;;;13.43;8.82;;;;;;;;;;5509587;25;20013;-90
2024/04/23 16:52:50;;;;;;;19.98;11.05;;;;;;;;;;5509474;25;19994;-91
2024/04/23 16:55:16;;;;;;;11.80;6.80;;;;;;;;;;5506885;26;20009;-90
2024/04/23 16:57:41;;;;;;;2.95;2.65;;;;;;;;;;5507243;26;20002;-90
2024/04/23 17:00:08;;;;;;;2.28;2.03;;;;;;;;;;5492864;25;20010;-89
2024/04/23 17:02:33;;;;;;;5.38;2.25;;;;;;;;;;5481013;25;20017;-88
2024/04/23 17:04:59;;;;;;;11.05;3.58;;;;;;;;;;5508549;25;20009;-88
2024/04/23 17:07:28;;;;;;;17.55;5.53;;;;;;;;;;5482453;25;19998;-89
2024/04/23 17:09:54;;;;;;;39.67;11.15;;;;;;;;;;5467954;26;20489;-87
2024/04/23 17:12:19;;;;;;;7.03;3.08;;;;;;;;;;5492641;26;20071;-88
2024/04/23 17:14:45;;;;;;;1.98;1.83;;;;;;;;;;5492906;26;20340;-89
2024/04/23 17:17:10;;;;;;;2.17;2.03;;;;;;;;;;5492746;26;20003;-88
2024/04/23 17:19:36;;;;;;;2.97;2.25;;;;;;;;;;5492960;26;20010;-88
2024/04/23 17:22:01;;;;;;;2.35;2.22;;;;;;;;;;5490609;26;19994;-87
2024/04/23 17:24:26;;;;;;;3.17;2.70;;;;;;;;;;5492423;26;19995;-88
2024/04/23 17:26:52;;;;;;;2.55;2.35;;;;;;;;;;5490639;26;20428;-88
2024/04/23 17:29:17;;;;;;;2.67;2.47;;;;;;;;;;5492463;26;20005;-87
2024/04/23 17:31:43;;;;;;;3.78;2.40;;;;;;;;;;5492422;26;20026;-88
2024/04/23 17:34:08;;;;;;;2.60;2.40;;;;;;;;;;5492357;26;19998;-87
2024/04/23 17:36:34;;;;;;;2.67;2.47;;;;;;;;;;5491992;26;20009;-87
2024/04/23 17:38:59;;;;;;;2.75;2.55;;;;;;;;;;5490385;26;19997;-88
2024/04/23 17:41:24;;;;;;;2.50;2.30;;;;;;;;;;5490202;26;19998;-88
2024/04/23 17:43:50;;;;;;;2.63;2.25;;;;;;;;;;5492002;26;19994;-87
2024/04/23 17:46:18;;;;;;;2.63;2.42;;;;;;;;;;5492239;26;19998;-87
2024/04/23 17:48:44;;;;;;;2.45;2.28;;;;;;;;;;5490576;26;20031;-87
2024/04/23 17:51:10;;;;;;;3.88;2.90;;;;;;;;;;5492114;26;19998;-87
2024/04/23 17:53:35;;;;;;;4.35;3.25;;;;;;;;;;5491976;26;20067;-87
2024/04/23 17:56:02;;;;;;;3.45;2.95;;;;;;;;;;5489500;26;20002;-87
2024/04/23 17:58:32;;;;;;;3.80;2.78;;;;;;;;;;5491918;26;20341;-87
2024/04/23 18:01:02;;;;;;;;;;;;;;;;;;5490533;26;20099;-87
2024/04/23 18:03:32;;;;;;;3.00;2.70;;;;;;;;;;5490321;26;19991;-88
2024/04/23 18:06:01;;;;;;;3.45;3.10;;;;;;;;;;5491678;26;19998;-87
2024/04/23 18:08:27;;;;;;;2.63;2.42;;;;;;;;;;5490106;26;20343;-87
2024/04/23 18:10:52;;;;;;;2.42;2.30;;;;;;;;;;5489739;26;19998;-87
2024/04/23 18:13:17;;;;;;;2.60;2.40;;;;;;;;;;5489925;26;20444;-87
2024/04/23 18:15:44;;;;;;;2.83;2.63;;;;;;;;;;5489842;26;20432;-87
2024/04/23 18:18:10;;;;;;;3.28;2.65;;;;;;;;;;5490683;26;19998;-87
2024/04/23 18:20:35;;;;;;;6.10;4.07;;;;;;;;;;5489244;26;20448;-87
2024/04/23 18:23:01;;;;;;;5.68;4.38;;;;;;;;;;5491989;26;19998;-88
2024/04/23 18:25:26;;;;;;;7.60;5.13;;;;;;;;;;5491922;26;19998;-89
2024/04/23 18:27:51;;;;;;;7.63;5.13;;;;;;;;;;5453364;26;19999;-88
2024/04/23 18:30:17;;;;;;;6.15;4.18;;;;;;;;;;5454989;26;20353;-87
2024/04/23 18:32:42;;;;;;;4.82;3.22;;;;;;;;;;5453404;26;20017;-87
2024/04/23 18:35:07;;;;;;;3.00;2.80;;;;;;;;;;5455493;26;20330;-88
2024/04/23 18:37:33;;;;;;;6.95;4.88;;;;;;;;;;5455540;26;20026;-88
2024/04/23 18:39:58;;;;;;;5.38;3.30;;;;;;;;;;5455868;26;20422;-86
2024/04/23 18:42:23;;;;;;;5.13;4.13;;;;;;;;;;5452861;26;20006;-85
2024/04/23 18:44:49;;;;;;;9.23;5.47;;;;;;;;;;5453188;26;20394;-84
2024/04/23 18:47:16;;;;;;;6.43;4.00;;;;;;;;;;5454615;26;20026;-83
2024/04/23 18:49:41;;;;;;;3.15;2.80;;;;;;;;;;5454473;26;19995;-83
2024/04/23 18:52:07;;;;;;;3.20;3.00;;;;;;;;;;5454637;26;20010;-85
2024/04/23 18:54:32;;;;;;;3.00;2.50;;;;;;;;;;5452425;26;20076;-84
2024/04/23 18:56:57;;;;;;;2.97;2.78;;;;;;;;;;5455184;26;20395;-87
2024/04/23 18:59:23;;;;;;;2.60;2.40;;;;;;;;;;5452835;26;19998;-87
2024/04/23 19:01:48;;;;;;;2.65;2.45;;;;;;;;;;5454908;26;20453;-87
2024/04/23 19:04:14;;;;;;;2.92;2.72;;;;;;;;;;5454693;26;20005;-87
2024/04/23 19:06:40;;;;;;;4.40;3.05;;;;;;;;;;5452770;26;19995;-86
2024/04/23 19:09:05;;;;;;;3.40;2.70;;;;;;;;;;5454530;26;19999;-87
2024/04/23 19:11:31;;;;;;;3.50;2.90;;;;;;;;;;5454517;26;19995;-87
2024/04/23 19:13:57;;;;;;;2.63;2.42;;;;;;;;;;5454283;26;19994;-87
2024/04/23 19:16:25;;;;;;;2.80;2.60;;;;;;;;;;5452245;26;20390;-88
2024/04/23 19:18:51;;;;;;;2.80;2.60;;;;;;;;;;5454253;26;19999;-88
2024/04/23 19:21:22;;;;;;;2.70;2.50;;;;;;;;;;5452367;26;20004;-89
2024/04/23 19:23:52;;;;;;;3.45;3.15;;;;;;;;;;5452607;26;20355;-87
2024/04/23 19:26:18;;;;;;;4.65;4.25;;;;;;;;;;5454216;26;20434;-89
2024/04/23 19:28:48;;;;;;;3.63;3.20;;;;;;;;;;5452395;26;19999;-87
2024/04/23 19:31:13;;;;;;;3.22;2.92;;;;;;;;;;5451816;26;19999;-87
2024/04/23 19:33:40;;;;;;;3.08;2.78;;;;;;;;;;5454003;26;20395;-87
2024/04/23 19:36:10;;;;;;;2.70;2.50;;;;;;;;;;5454099;26;20010;-87
2024/04/23 19:38:36;;;;;;;3.65;3.13;;;;;;;;;;5452280;26;20071;-88
2024/04/23 19:41:09;;;;;;;3.03;2.80;;;;;;;;;;5452339;26;19995;-90
2024/04/23 19:43:35;;;;;;;3.42;3.13;;;;;;;;;;5452397;26;20010;-87
2024/04/23 19:46:05;;;;;;;3.08;2.78;;;;;;;;;;5453941;26;20448;-87
2024/04/23 19:48:31;;;;;;;3.80;3.20;;;;;;;;;;5452122;26;20010;-88
2024/04/23 19:50:56;;;;;;;4.00;3.67;;;;;;;;;;5465435;26;20463;-88
2024/04/23 19:53:22;;;;;;;3.85;3.55;;;;;;;;;;5488194;26;20005;-85
2024/04/23 19:55:50;;;;;;;3.85;3.50;;;;;;;;;;5490882;26;20433;-90
2024/04/23 20:01:03;;;;;;;5.72;5.07;;;;;;;;;;5492036;26;20336;-93
2024/04/23 20:03:28;;;;;;;4.28;3.83;;;;;;;;;;5491666;26;19994;-93
2024/04/23 20:05:57;;;;;;;4.32;3.92;;;;;;;;;;5492482;26;19994;-88
2024/04/23 20:08:23;;;;;;;4.88;3.85;;;;;;;;;;5490969;26;20001;-90
2024/04/23 20:10:48;;;;;;;5.35;4.00;;;;;;;;;;5489515;26;20328;-91
2024/04/23 20:13:13;;;;;;;4.07;3.78;;;;;;;;;;5489224;26;20006;-91
2024/04/23 20:15:39;;;;;;;4.35;3.95;;;;;;;;;;5490479;26;19998;-88
2024/04/23 20:18:04;;;;;;;4.68;4.20;;;;;;;;;;5473399;26;20006;-85
2024/04/23 20:20:30;;;;;;;4.85;4.45;;;;;;;;;;5489210;26;19994;-86
2024/04/23 20:22:55;;;;;;;4.68;4.28;;;;;;;;;;5487445;26;20326;-84
2024/04/23 20:25:20;;;;;;;4.25;3.85;;;;;;;;;;5487527;26;19996;-86
2024/04/23 20:27:46;;;;;;;4.72;4.22;;;;;;;;;;5489313;26;19994;-86
2024/04/23 20:30:11;;;;;;;4.60;4.20;;;;;;;;;;5487267;26;20002;-85
2024/04/23 20:32:37;;;;;;;5.70;5.10;;;;;;;;;;5487553;26;20035;-86
2024/04/23 20:35:02;;;;;;;5.30;4.80;;;;;;;;;;5489029;26;19990;-85
2024/04/23 20:37:27;;;;;;;6.20;5.10;;;;;;;;;;5489270;26;19990;-86
2024/04/23 20:39:53;;;;;;;6.53;5.82;;;;;;;;;;5487355;26;19990;-84
2024/04/23 20:42:18;;;;;;;6.55;5.45;;;;;;;;;;5490457;26;19990;-85
2024/04/23 20:44:43;;;;;;;5.40;4.90;;;;;;;;;;5490959;26;20436;-85
2024/04/23 20:47:09;;;;;;;9.55;5.10;;;;;;;;;;5492953;26;20066;-87
2024/04/23 20:49:34;;;;;;;5.50;5.00;;;;;;;;;;5492835;26;19994;-85
2024/04/23 20:52:00;;;;;;;7.03;6.32;;;;;;;;;;5490535;26;19990;-86
2024/04/23 20:54:25;;;;;;;6.97;6.28;;;;;;;;;;5492726;26;20005;-87
2024/04/23 20:56:50;;;;;;;6.35;5.75;;;;;;;;;;5490512;26;20361;-85
2024/04/23 20:59:17;;;;;;;8.23;6.40;;;;;;;;;;5492823;26;20005;-85
2024/04/23 21:01:43;;;;;;;11.20;6.45;;;;;;;;;;5492576;26;19994;-86
2024/04/23 21:04:09;;;;;;;7.30;6.15;;;;;;;;;;5492665;26;20062;-86
2024/04/23 21:06:34;;;;;;;9.68;6.60;;;;;;;;;;5490937;26;20328;-86
2024/04/23 21:08:59;;;;;;;6.97;6.28;;;;;;;;;;5490797;26;19990;-86
2024/04/23 21:11:25;;;;;;;7.60;6.80;;;;;;;;;;5492374;26;19993;-86
2024/04/23 21:13:50;;;;;;;6.53;5.93;;;;;;;;;;5492528;26;20325;-86
2024/04/23 21:16:16;;;;;;;6.85;5.78;;;;;;;;;;5490548;26;19994;-87
2024/04/23 21:18:43;;;;;;;7.82;6.30;;;;;;;;;;5490790;26;20010;-87
2024/04/23 21:21:09;;;;;;;7.72;6.93;;;;;;;;;;5492480;26;20000;-87
2024/04/23 21:23:34;;;;;;;7.78;6.85;;;;;;;;;;5492550;26;20423;-87
2024/04/23 21:26:03;;;;;;;8.85;7.45;;;;;;;;;;5490819;26;20009;-87
2024/04/23 21:28:28;;;;;;;9.07;6.80;;;;;;;;;;5460468;26;19994;-87
2024/04/23 21:31:00;;;;;;;8.00;7.20;;;;;;;;;;5490697;26;20439;-86
2024/04/23 21:33:31;;;;;;;8.80;7.70;;;;;;;;;;5492284;26;19994;-87
2024/04/23 21:36:09;;;;;;;9.18;7.72;;;;;;;;;;5490551;26;20018;-87
2024/04/23 21:38:36;;;;;;;8.10;7.03;;;;;;;;;;5492289;26;20070;-87
2024/04/23 21:41:06;;;;;;;9.07;7.20;;;;;;;;;;5490396;26;19994;-87
2024/04/23 21:43:32;;;;;;;8.70;7.47;;;;;;;;;;5492223;26;19998;-87
2024/04/23 21:46:06;;;;;;;8.77;7.03;;;;;;;;;;5492213;26;20013;-86
2024/04/23 21:48:31;;;;;;;12.10;9.15;;;;;;;;;;5491872;26;20078;-87
2024/04/23 21:51:10;;;;;;;13.45;9.75;;;;;;;;;;5471421;26;20010;-88
2024/04/23 21:53:36;;;;;;;12.88;9.88;;;;;;;;;;5454313;26;20010;-88
